Terminal Aerodrome Forecast
Issued by NWS

Home | Current Version | Previous Version | Text Only | Print | Product List | Glossary Off
Versions: 1 2 3 4 5 6 7 8 9 10 11 12 13 14 15

000
FTUS43 KIWX 271100
TAFSBN
TAF
KSBN 271120Z 2712/2812 22012KT P6SM SCT060
      TEMPO 2713/2716 -SHRA BKN060
     FM271600 26015G25KT P6SM VCTS BKN040CB
     FM271900 27014KT P6SM VCSH BKN045
     FM272200 30014KT P6SM SCT045
     FM280100 VRB03KT P6SM SKC=

USA.gov is the U.S. government's official web portal to all federal, state and local government web resources and services.